Time;durP1;ratioP1;P1;durP2;ratioP2;P2;SDS_P1;SDS_P2;PMS_P1;PMS_P2;Temp;Humidity;BMP_temperature;BMP_pressure;BME280_temperature;BME280_humidity;BME280_pressure;Samples;Min_cycle;Max_cycle;Signal;HPM_P1;HPM_P2
2024/01/24 00:01:51;;;;;;;0.70;0.70;;;8.20;1.00;;;;;;5056403;28;20175;-88
2024/01/24 00:04:16;;;;;;;0.60;0.60;;;8.30;1.00;;;;;;5057184;28;20171;-88
2024/01/24 00:06:42;;;;;;;0.60;0.60;;;8.30;99.90;;;;;;5056224;28;20199;-88
2024/01/24 00:09:08;;;;;;;0.70;0.70;;;8.30;99.90;;;;;;5055571;28;20195;-87
2024/01/24 00:11:34;;;;;;;0.73;0.73;;;8.30;99.90;;;;;;5056000;28;20190;-88
2024/01/24 00:13:59;;;;;;;0.70;0.70;;;8.50;99.90;;;;;;5057118;28;20210;-87
2024/01/24 00:16:25;;;;;;;0.80;0.80;;;8.30;99.90;;;;;;5056087;28;20253;-87
2024/01/24 00:18:50;;;;;;;0.70;0.70;;;8.40;1.00;;;;;;5053795;28;20242;-88
2024/01/24 00:21:17;;;;;;;0.63;0.63;;;8.30;99.90;;;;;;5055747;28;20270;-88
2024/01/24 00:23:42;;;;;;;0.80;0.80;;;8.30;1.00;;;;;;5055579;28;20258;-88
2024/01/24 00:26:08;;;;;;;0.70;0.70;;;8.30;99.90;;;;;;5055443;28;20214;-87
2024/01/24 00:28:33;;;;;;;0.70;0.70;;;8.30;99.90;;;;;;5057382;28;20175;-87
2024/01/24 00:30:59;;;;;;;0.70;0.70;;;8.30;1.00;;;;;;5063020;28;20203;-88
2024/01/24 00:33:27;;;;;;;0.60;0.60;;;8.30;1.00;;;;;;5062028;28;20175;-89
2024/01/24 00:35:53;;;;;;;0.80;0.80;;;8.30;99.90;;;;;;5066049;28;20171;-87
2024/01/24 00:38:18;;;;;;;0.80;0.80;;;8.30;1.00;;;;;;5059531;28;20210;-88
2024/01/24 00:40:44;;;;;;;0.63;0.63;;;8.30;1.00;;;;;;5056977;28;20175;-87
2024/01/24 00:43:10;;;;;;;0.60;0.60;;;8.30;1.00;;;;;;5043995;28;20270;-88
2024/01/24 00:45:35;;;;;;;0.73;0.73;;;8.30;1.00;;;;;;5038683;28;20226;-89
2024/01/24 00:48:01;;;;;;;0.70;0.70;;;8.30;1.00;;;;;;5040305;28;20398;-88
2024/01/24 00:50:26;;;;;;;0.70;0.70;;;8.30;1.00;;;;;;5040597;28;20582;-88
2024/01/24 00:52:55;;;;;;;0.60;0.60;;;8.20;1.00;;;;;;5041259;28;20175;-88
2024/01/24 00:55:21;;;;;;;0.70;0.70;;;8.20;99.90;;;;;;5040064;28;20184;-88
2024/01/24 00:57:46;;;;;;;0.60;0.60;;;8.10;99.90;;;;;;5039912;28;20198;-88
2024/01/24 01:00:12;;;;;;;0.70;0.70;;;8.10;1.00;;;;;;5040358;28;20187;-88
2024/01/24 01:02:38;;;;;;;0.70;0.70;;;8.10;99.90;;;;;;5040220;28;20172;-88
2024/01/24 01:05:04;;;;;;;0.80;0.80;;;8.10;1.00;;;;;;5041045;28;20176;-88
2024/01/24 01:07:30;;;;;;;0.70;0.70;;;8.10;99.90;;;;;;5040485;28;20211;-88
2024/01/24 01:09:57;;;;;;;0.70;0.70;;;8.10;1.00;;;;;;5041045;28;20279;-88
2024/01/24 01:12:22;;;;;;;0.70;0.70;;;8.20;1.00;;;;;;5039563;28;20642;-86
2024/01/24 01:14:48;;;;;;;0.70;0.70;;;8.30;1.00;;;;;;5039435;28;20268;-88
2024/01/24 01:17:13;;;;;;;0.80;0.80;;;8.30;1.00;;;;;;5041046;28;20554;-88
2024/01/24 01:19:39;;;;;;;0.60;0.60;;;8.40;99.90;;;;;;5038365;28;20537;-87
2024/01/24 01:22:05;;;;;;;0.73;0.73;;;8.50;99.90;;;;;;5040728;28;20267;-90
2024/01/24 01:24:30;;;;;;;0.70;0.70;;;8.60;99.90;;;;;;5038967;28;20192;-87
2024/01/24 01:26:57;;;;;;;0.80;0.80;;;8.50;93.10;;;;;;5040086;28;20287;-87
2024/01/24 01:29:23;;;;;;;0.60;0.60;;;8.60;53.30;;;;;;5037751;28;20202;-88
2024/01/24 01:31:48;;;;;;;0.70;0.70;;;8.60;1.00;;;;;;5037983;28;20168;-87
2024/01/24 01:34:14;;;;;;;0.70;0.70;;;8.70;1.00;;;;;;5037362;28;20199;-87
2024/01/24 01:36:40;;;;;;;0.70;0.70;;;8.70;1.00;;;;;;5035453;28;20562;-88
2024/01/24 01:39:05;;;;;;;0.60;0.60;;;8.70;1.00;;;;;;5036217;28;20191;-87
2024/01/24 01:41:31;;;;;;;0.80;0.80;;;8.80;1.00;;;;;;5036523;28;20183;-87
2024/01/24 01:43:56;;;;;;;0.60;0.60;;;8.90;1.00;;;;;;5036838;28;20657;-87
2024/01/24 01:46:22;;;;;;;0.60;0.60;;;8.90;1.00;;;;;;5035168;28;20198;-88
2024/01/24 01:48:49;;;;;;;0.60;0.60;;;8.90;1.00;;;;;;5035848;28;20295;-88
2024/01/24 01:51:19;;;;;;;0.70;0.70;;;8.90;1.00;;;;;;5036456;28;20208;-87
2024/01/24 01:53:47;;;;;;;0.60;0.60;;;8.90;1.00;;;;;;5036426;28;20176;-88
2024/01/24 01:56:19;;;;;;;0.70;0.70;;;8.90;1.00;;;;;;5036636;28;20195;-88
2024/01/24 01:58:46;;;;;;;0.70;0.70;;;8.90;1.00;;;;;;5035393;28;20176;-87
2024/01/24 02:01:14;;;;;;;0.70;0.70;;;8.90;1.00;;;;;;5046327;28;20196;-87
2024/01/24 02:03:41;;;;;;;0.70;0.70;;;8.90;68.60;;;;;;5059584;28;20192;-86
2024/01/24 02:06:07;;;;;;;0.70;0.70;;;8.90;94.40;;;;;;5059474;28;20192;-89
2024/01/24 02:08:34;;;;;;;0.70;0.70;;;8.80;99.90;;;;;;5048545;28;20712;-87
2024/01/24 02:10:59;;;;;;;0.70;0.70;;;8.70;99.90;;;;;;5036808;28;20229;-87
2024/01/24 02:13:32;;;;;;;0.80;0.80;;;8.70;1.00;;;;;;5040642;28;20172;-87
2024/01/24 02:16:05;;;;;;;0.60;0.60;;;8.70;1.00;;;;;;5038933;28;20176;-87
2024/01/24 02:18:30;;;;;;;0.70;0.70;;;8.70;99.90;;;;;;5040989;28;20186;-86
2024/01/24 02:20:56;;;;;;;0.73;0.73;;;8.60;1.00;;;;;;5040769;28;20263;-88
2024/01/24 02:23:24;;;;;;;0.60;0.60;;;8.60;99.90;;;;;;5040187;28;20168;-88
2024/01/24 02:25:50;;;;;;;0.67;0.67;;;8.60;99.90;;;;;;5039190;28;20179;-87
2024/01/24 02:28:16;;;;;;;0.70;0.70;;;8.60;1.00;;;;;;5037531;28;20172;-87
2024/01/24 02:30:41;;;;;;;0.60;0.60;;;8.60;1.00;;;;;;5052820;28;20180;-87
2024/01/24 02:33:07;;;;;;;0.70;0.70;;;8.60;1.00;;;;;;5058430;28;20180;-87
2024/01/24 02:35:34;;;;;;;0.70;0.70;;;8.60;99.90;;;;;;5059382;28;20164;-87
2024/01/24 02:38:00;;;;;;;0.70;0.70;;;8.50;1.00;;;;;;5058398;28;20191;-88
2024/01/24 02:40:26;;;;;;;0.70;0.70;;;8.50;99.90;;;;;;5058382;28;20199;-87
2024/01/24 02:42:53;;;;;;;0.80;0.80;;;8.50;99.90;;;;;;5059281;28;20186;-87
2024/01/24 02:45:19;;;;;;;0.60;0.60;;;8.50;1.00;;;;;;5054761;28;20190;-86
2024/01/24 02:47:44;;;;;;;0.73;0.73;;;8.50;41.60;;;;;;5053783;28;20207;-87
2024/01/24 02:50:11;;;;;;;0.57;0.57;;;8.50;88.20;;;;;;5036407;28;20197;-87
2024/01/24 02:52:37;;;;;;;0.70;0.70;;;8.60;98.70;;;;;;5040012;28;20214;-87
2024/01/24 02:55:03;;;;;;;0.80;0.80;;;8.60;99.90;;;;;;5058218;28;20164;-87
2024/01/24 02:57:29;;;;;;;0.70;0.70;;;8.60;99.90;;;;;;5058173;28;20183;-90
2024/01/24 02:59:54;;;;;;;0.70;0.70;;;8.70;99.90;;;;;;5058674;28;20163;-89
2024/01/24 03:02:20;;;;;;;0.60;0.60;;;8.80;99.90;;;;;;5058874;28;20168;-88
2024/01/24 03:04:45;;;;;;;0.80;0.80;;;8.80;99.90;;;;;;5057179;28;20164;-87
2024/01/24 03:07:11;;;;;;;0.70;0.70;;;9.30;99.90;;;;;;5039138;28;20203;-88
2024/01/24 03:09:36;;;;;;;0.70;0.70;;;8.90;1.00;;;;;;5035224;28;20302;-88
2024/01/24 03:12:02;;;;;;;0.70;0.70;;;9.00;1.00;;;;;;5035292;28;20183;-88
2024/01/24 03:14:28;;;;;;;0.80;0.80;;;9.00;1.00;;;;;;5036788;28;20198;-87
2024/01/24 03:16:53;;;;;;;0.80;0.80;;;9.00;1.00;;;;;;5036121;28;20615;-88
2024/01/24 03:19:19;;;;;;;0.70;0.70;;;9.10;99.90;;;;;;5036773;28;20178;-87
2024/01/24 03:21:46;;;;;;;0.70;0.70;;;9.10;99.90;;;;;;5035861;28;20203;-88
2024/01/24 03:24:11;;;;;;;0.70;0.70;;;9.20;99.90;;;;;;5035801;28;20175;-87
2024/01/24 03:26:37;;;;;;;0.80;0.80;;;9.20;1.00;;;;;;5034815;28;20196;-87
2024/01/24 03:29:02;;;;;;;0.80;0.80;;;9.20;99.90;;;;;;5035262;28;20214;-87
2024/01/24 03:31:28;;;;;;;0.60;0.60;;;9.30;99.90;;;;;;5033705;28;20207;-88
2024/01/24 03:33:54;;;;;;;0.70;0.70;;;9.60;99.90;;;;;;5034887;28;20664;-88
2024/01/24 03:36:19;;;;;;;0.73;0.73;;;9.30;99.90;;;;;;5035974;28;20669;-89
2024/01/24 03:38:45;;;;;;;0.70;0.70;;;9.30;99.20;;;;;;5042242;28;20176;-87
2024/01/24 03:41:10;;;;;;;0.60;0.60;;;9.40;99.90;;;;;;5057535;28;20172;-88
2024/01/24 03:43:39;;;;;;;0.60;0.60;;;9.40;95.50;;;;;;5057248;28;20176;-86
2024/01/24 03:46:05;;;;;;;0.70;0.70;;;9.50;92.40;;;;;;5055396;28;20199;-88
2024/01/24 03:48:31;;;;;;;0.70;0.70;;;9.50;99.90;;;;;;5036090;28;20660;-89
2024/01/24 03:50:56;;;;;;;0.60;0.60;;;9.60;50.70;;;;;;5036144;28;20246;-87
2024/01/24 03:53:22;;;;;;;0.70;0.70;;;9.60;19.80;;;;;;5036976;28;20553;-87
2024/01/24 03:55:48;;;;;;;0.60;0.60;;;9.60;1.00;;;;;;5037572;28;20230;-88
2024/01/24 03:58:13;;;;;;;0.60;0.60;;;9.80;1.00;;;;;;5037908;28;20266;-88
2024/01/24 04:00:39;;;;;;;0.70;0.70;;;9.80;1.00;;;;;;5039749;28;20178;-87
2024/01/24 04:03:05;;;;;;;0.70;0.70;;;9.80;1.00;;;;;;5038510;28;20183;-89
2024/01/24 04:05:30;;;;;;;0.63;0.63;;;9.90;1.00;;;;;;5037313;28;20179;-88
2024/01/24 04:07:56;;;;;;;0.70;0.70;;;10.00;1.00;;;;;;5036177;28;20207;-89
2024/01/24 04:10:21;;;;;;;0.60;0.60;;;10.00;1.00;;;;;;5035061;28;20261;-88
2024/01/24 04:12:47;;;;;;;0.70;0.70;;;10.00;1.00;;;;;;5034467;28;20191;-88
2024/01/24 04:15:13;;;;;;;0.60;0.60;;;10.10;1.00;;;;;;5035673;28;20202;-88
2024/01/24 04:17:39;;;;;;;0.60;0.60;;;10.10;1.00;;;;;;5034940;28;20575;-88
2024/01/24 04:20:05;;;;;;;0.50;0.50;;;10.10;3.10;;;;;;5035128;28;20176;-90
2024/01/24 04:22:31;;;;;;;0.60;0.60;;;10.20;1.00;;;;;;5035195;28;20171;-89
2024/01/24 04:24:57;;;;;;;0.60;0.60;;;10.30;1.00;;;;;;5035284;28;20202;-89
2024/01/24 04:27:23;;;;;;;0.60;0.60;;;10.40;1.00;;;;;;5034316;28;20202;-88
2024/01/24 04:29:49;;;;;;;0.70;0.70;;;10.40;1.00;;;;;;5035521;28;20282;-89
2024/01/24 04:32:14;;;;;;;0.53;0.53;;;10.50;1.00;;;;;;5034744;28;20508;-88
2024/01/24 04:34:40;;;;;;;0.73;0.73;;;10.50;99.90;;;;;;5016583;28;20183;-88
2024/01/24 04:37:06;;;;;;;0.60;0.60;;;10.60;92.10;;;;;;5033819;28;20649;-86
2024/01/24 04:39:31;;;;;;;0.60;0.60;;;10.60;99.90;;;;;;5033618;28;20207;-89
2024/01/24 04:41:58;;;;;;;0.50;0.50;;;10.70;1.00;;;;;;5033705;28;20172;-88
2024/01/24 04:44:24;;;;;;;0.50;0.50;;;10.70;99.90;;;;;;5034228;28;20183;-89
2024/01/24 04:46:49;;;;;;;0.60;0.60;;;10.70;1.00;;;;;;5033678;28;20645;-87
2024/01/24 04:49:15;;;;;;;0.60;0.60;;;10.70;99.90;;;;;;5033310;28;20613;-88
2024/01/24 04:51:40;;;;;;;0.70;0.70;;;10.80;99.90;;;;;;5035842;28;20546;-88
2024/01/24 04:54:07;;;;;;;0.67;0.67;;;10.80;1.00;;;;;;5033830;28;20163;-88
2024/01/24 04:56:35;;;;;;;0.50;0.50;;;10.80;1.00;;;;;;5032951;28;20191;-89
2024/01/24 04:59:00;;;;;;;0.60;0.60;;;10.80;1.00;;;;;;5033801;28;20164;-89
2024/01/24 05:01:26;;;;;;;0.60;0.60;;;10.80;1.00;;;;;;5034258;28;20186;-87
2024/01/24 05:03:52;;;;;;;0.70;0.70;;;10.80;99.90;;;;;;5032724;28;20238;-87
2024/01/24 05:06:18;;;;;;;0.60;0.60;;;10.80;99.90;;;;;;5033564;28;20560;-89
2024/01/24 05:08:45;;;;;;;0.53;0.53;;;10.80;1.00;;;;;;5033715;28;20196;-88
2024/01/24 05:11:10;;;;;;;0.60;0.60;;;10.90;99.90;;;;;;5035080;28;20577;-88
2024/01/24 05:13:36;;;;;;;0.60;0.60;;;10.90;1.00;;;;;;5034829;28;20168;-87
2024/01/24 05:16:02;;;;;;;0.50;0.50;;;11.00;1.00;;;;;;5034295;28;20180;-87
2024/01/24 05:18:27;;;;;;;0.67;0.67;;;11.00;1.00;;;;;;5033797;28;20176;-88
2024/01/24 05:20:54;;;;;;;0.60;0.60;;;11.00;1.00;;;;;;5035705;28;20184;-86
2024/01/24 05:23:20;;;;;;;0.50;0.50;;;11.10;1.00;;;;;;5035189;28;20172;-87
2024/01/24 05:25:46;;;;;;;0.50;0.50;;;11.10;99.90;;;;;;5035132;28;20183;-87
2024/01/24 05:28:12;;;;;;;0.60;0.60;;;11.10;99.90;;;;;;5034448;28;20184;-88
2024/01/24 05:30:37;;;;;;;0.60;0.60;;;11.20;99.90;;;;;;5039042;28;20250;-86
2024/01/24 05:33:03;;;;;;;0.60;0.60;;;11.40;99.90;;;;;;5038681;28;20637;-88
2024/01/24 05:35:29;;;;;;;0.50;0.50;;;11.20;1.00;;;;;;5039064;28;20229;-88
2024/01/24 05:37:54;;;;;;;0.60;0.60;;;11.30;1.00;;;;;;5042194;28;20238;-89
2024/01/24 05:40:20;;;;;;;0.50;0.50;;;11.30;1.00;;;;;;5037567;28;20187;-88
2024/01/24 05:42:46;;;;;;;0.50;0.50;;;11.30;1.00;;;;;;5037700;28;20175;-88
2024/01/24 05:45:12;;;;;;;0.50;0.50;;;11.30;1.00;;;;;;5037953;28;20168;-89
2024/01/24 05:47:38;;;;;;;0.50;0.50;;;11.40;1.00;;;;;;5037199;28;20211;-88
2024/01/24 05:50:05;;;;;;;0.70;0.70;;;11.50;1.00;;;;;;5036300;28;20199;-89
2024/01/24 05:52:31;;;;;;;0.77;0.77;;;11.40;1.00;;;;;;5049591;28;20182;-89
2024/01/24 05:54:56;;;;;;;0.70;0.70;;;11.40;1.00;;;;;;5059490;28;20176;-88
2024/01/24 05:57:22;;;;;;;0.70;0.70;;;11.50;1.00;;;;;;5058099;28;20199;-88
2024/01/24 05:59:47;;;;;;;0.60;0.60;;;11.50;1.00;;;;;;5038807;28;20176;-87
2024/01/24 06:02:13;;;;;;;0.60;0.60;;;11.60;1.00;;;;;;5039368;28;20172;-86
2024/01/24 06:04:39;;;;;;;0.50;0.50;;;11.60;1.00;;;;;;5038798;28;20168;-89
2024/01/24 06:07:06;;;;;;;0.60;0.60;;;11.60;1.00;;;;;;5038403;28;20693;-86
2024/01/24 06:09:31;;;;;;;0.60;0.60;;;11.60;1.00;;;;;;5035780;28;20196;-88
2024/01/24 06:11:58;;;;;;;0.50;0.50;;;11.60;1.00;;;;;;5035095;28;20189;-86
2024/01/24 06:14:24;;;;;;;0.60;0.60;;;11.60;64.50;;;;;;5035776;28;20266;-87
2024/01/24 06:16:49;;;;;;;0.50;0.50;;;12.00;75.80;;;;;;5034475;28;20227;-89
2024/01/24 06:19:15;;;;;;;0.70;0.70;;;11.70;99.90;;;;;;5035172;28;20172;-87
2024/01/24 06:21:40;;;;;;;0.60;0.60;;;11.70;99.90;;;;;;5036230;28;20179;-89
2024/01/24 06:24:07;;;;;;;0.50;0.50;;;11.60;99.90;;;;;;5038963;28;20172;-89
2024/01/24 06:26:33;;;;;;;0.50;0.50;;;11.80;99.90;;;;;;5043636;28;20707;-88
2024/01/24 06:28:58;;;;;;;0.50;0.50;;;11.70;99.90;;;;;;5044522;28;20660;-87
2024/01/24 06:31:24;;;;;;;0.60;0.60;;;11.70;99.90;;;;;;5044974;28;20200;-88
2024/01/24 06:33:50;;;;;;;0.60;0.60;;;11.70;99.90;;;;;;5039152;28;20210;-88
2024/01/24 06:36:16;;;;;;;0.70;0.70;;;11.70;99.90;;;;;;5036953;28;20230;-88
2024/01/24 06:38:42;;;;;;;0.67;0.67;;;11.80;99.90;;;;;;5038831;28;20184;-88
2024/01/24 06:41:07;;;;;;;0.60;0.60;;;11.80;99.90;;;;;;5036148;28;20179;-87
2024/01/24 06:43:35;;;;;;;0.60;0.60;;;11.90;99.90;;;;;;5023567;28;20206;-86
2024/01/24 06:46:02;;;;;;;0.53;0.53;;;11.80;99.90;;;;;;5036880;28;20176;-87
2024/01/24 06:48:29;;;;;;;0.60;0.60;;;11.80;99.90;;;;;;5045954;28;20178;-87
2024/01/24 06:50:55;;;;;;;0.50;0.50;;;11.80;99.90;;;;;;5054930;28;20685;-88
2024/01/24 06:53:21;;;;;;;0.53;0.53;;;11.80;99.90;;;;;;5054262;28;20192;-87
2024/01/24 06:55:46;;;;;;;0.50;0.50;;;11.80;99.90;;;;;;5056781;28;20192;-88
2024/01/24 06:58:12;;;;;;;0.60;0.60;;;11.80;99.90;;;;;;5056866;28;20164;-86
2024/01/24 07:00:37;;;;;;;0.50;0.50;;;12.10;99.90;;;;;;5058709;28;20219;-84
2024/01/24 07:03:03;;;;;;;0.50;0.50;;;11.80;99.90;;;;;;5058495;28;20183;-88
2024/01/24 07:05:29;;;;;;;0.53;0.53;;;11.80;99.90;;;;;;5057492;28;20187;-88
2024/01/24 07:07:56;;;;;;;0.40;0.40;;;11.90;99.90;;;;;;5057730;28;20359;-85
2024/01/24 07:10:22;;;;;;;0.70;0.70;;;11.90;1.00;;;;;;5049058;28;20206;-89
2024/01/24 07:12:47;;;;;;;0.60;0.60;;;12.00;1.00;;;;;;5036797;28;20184;-87
2024/01/24 07:15:14;;;;;;;0.70;0.70;;;11.90;1.00;;;;;;5036628;28;20183;-89
2024/01/24 07:17:40;;;;;;;0.53;0.53;;;11.90;1.00;;;;;;5034478;28;20200;-88
2024/01/24 07:20:07;;;;;;;0.77;0.77;;;12.00;99.90;;;;;;5033668;28;20528;-87
2024/01/24 07:22:32;;;;;;;0.50;0.50;;;12.00;99.90;;;;;;5034563;28;20176;-90
2024/01/24 07:24:58;;;;;;;0.60;0.60;;;12.30;99.90;;;;;;5034376;28;20358;-90
2024/01/24 07:27:23;;;;;;;0.60;0.60;;;12.00;99.90;;;;;;5034307;28;20188;-89
2024/01/24 07:29:49;;;;;;;0.70;0.70;;;12.10;99.90;;;;;;5033962;28;20211;-90
2024/01/24 07:32:15;;;;;;;0.63;0.63;;;12.10;99.90;;;;;;5035265;28;20262;-88
2024/01/24 07:34:41;;;;;;;0.50;0.50;;;12.10;99.90;;;;;;5035095;28;20180;-90
2024/01/24 07:37:08;;;;;;;0.60;0.60;;;12.20;99.90;;;;;;5036965;28;20211;-87
2024/01/24 07:39:34;;;;;;;0.60;0.60;;;12.30;99.90;;;;;;5038187;28;20168;-88
2024/01/24 07:42:00;;;;;;;0.70;0.70;;;12.20;99.90;;;;;;5038480;28;20186;-89
2024/01/24 07:44:26;;;;;;;0.60;0.60;;;12.30;99.90;;;;;;5038777;28;20423;-90
2024/01/24 07:46:52;;;;;;;0.60;0.60;;;12.50;99.90;;;;;;5037161;28;20196;-88
2024/01/24 07:49:18;;;;;;;0.40;0.40;;;12.30;99.90;;;;;;5037349;28;20188;-86
2024/01/24 07:51:46;;;;;;;0.40;0.40;;;12.30;99.90;;;;;;5038428;28;20547;-85
2024/01/24 07:54:12;;;;;;;0.57;0.57;;;12.30;99.90;;;;;;5046375;28;20183;-83
2024/01/24 07:56:38;;;;;;;0.50;0.50;;;12.40;79.60;;;;;;5056977;28;20194;-84
2024/01/24 07:59:05;;;;;;;0.67;0.67;;;12.30;82.40;;;;;;5051511;28;20258;-90
2024/01/24 08:01:31;;;;;;;0.60;0.60;;;12.40;50.80;;;;;;5057043;28;20273;-89
2024/01/24 08:03:58;;;;;;;0.50;0.50;;;12.40;25.20;;;;;;5053810;28;20170;-84
2024/01/24 08:06:24;;;;;;;0.50;0.50;;;12.40;1.00;;;;;;5034884;28;20399;-84
2024/01/24 08:08:50;;;;;;;0.50;0.50;;;12.40;1.00;;;;;;5033728;28;20834;-87
2024/01/24 08:11:16;;;;;;;0.60;0.60;;;12.40;1.00;;;;;;5035519;28;20238;-88
2024/01/24 08:13:44;;;;;;;0.50;0.50;;;12.50;1.00;;;;;;5033024;28;20227;-86
2024/01/24 08:16:10;;;;;;;0.60;0.60;;;12.50;1.00;;;;;;5035507;28;20245;-86
2024/01/24 08:18:37;;;;;;;0.60;0.60;;;12.50;1.00;;;;;;5035436;28;20188;-88
2024/01/24 08:21:03;;;;;;;0.50;0.50;;;12.50;1.00;;;;;;5036576;28;20167;-84
2024/01/24 08:23:29;;;;;;;0.67;0.67;;;12.60;1.00;;;;;;5035943;28;20619;-85
2024/01/24 08:25:55;;;;;;;0.50;0.50;;;12.70;99.90;;;;;;5034764;28;20178;-84
2024/01/24 08:28:21;;;;;;;0.43;0.43;;;12.80;99.90;;;;;;5033506;28;20689;-88
2024/01/24 08:30:47;;;;;;;0.50;0.50;;;12.70;99.90;;;;;;5034705;28;20203;-86
2024/01/24 08:33:12;;;;;;;0.60;0.60;;;12.80;99.90;;;;;;5029941;28;20303;-86
2024/01/24 08:35:38;;;;;;;0.50;0.50;;;12.70;99.90;;;;;;5032910;28;20195;-89
2024/01/24 08:38:04;;;;;;;0.60;0.60;;;12.70;99.90;;;;;;5034919;28;20187;-87
2024/01/24 08:40:30;;;;;;;0.50;0.50;;;12.70;99.90;;;;;;5033462;28;20180;-85
2024/01/24 08:42:56;;;;;;;0.60;0.60;;;12.60;1.00;;;;;;5033241;28;20701;-86
2024/01/24 08:45:21;;;;;;;0.50;0.50;;;12.60;1.00;;;;;;5034927;28;20196;-85
2024/01/24 08:47:47;;;;;;;0.60;0.60;;;12.60;1.00;;;;;;5035732;28;20660;-83
2024/01/24 08:50:13;;;;;;;0.60;0.60;;;12.60;1.00;;;;;;5034246;28;20227;-85
2024/01/24 08:52:38;;;;;;;0.53;0.53;;;12.60;1.00;;;;;;5034219;28;20706;-88
2024/01/24 08:55:07;;;;;;;0.70;0.70;;;12.60;1.00;;;;;;5034634;28;20229;-87
2024/01/24 08:57:32;;;;;;;0.57;0.57;;;12.60;1.00;;;;;;5035606;28;20203;-88
2024/01/24 08:59:58;;;;;;;0.60;0.60;;;12.60;42.00;;;;;;5035160;28;20176;-89
2024/01/24 09:02:25;;;;;;;0.50;0.50;;;12.70;53.30;;;;;;5035388;28;20178;-86
2024/01/24 09:04:52;;;;;;;0.60;0.60;;;12.70;1.00;;;;;;5038347;28;20665;-86
2024/01/24 09:07:19;;;;;;;0.53;0.53;;;12.70;86.50;;;;;;5041023;28;20198;-88
2024/01/24 09:09:48;;;;;;;0.67;0.67;;;12.70;98.50;;;;;;5039170;28;20204;-87
2024/01/24 09:12:14;;;;;;;0.60;0.60;;;12.70;26.60;;;;;;5040963;28;20233;-86
2024/01/24 09:14:40;;;;;;;0.60;0.60;;;12.70;14.50;;;;;;5041279;28;20239;-87
2024/01/24 09:17:07;;;;;;;0.50;0.50;;;12.70;93.50;;;;;;5040853;28;20554;-88
2024/01/24 09:19:33;;;;;;;0.50;0.50;;;12.70;99.90;;;;;;5039774;28;20275;-88
2024/01/24 09:21:59;;;;;;;0.60;0.60;;;12.80;96.80;;;;;;5040177;28;20563;-86
2024/01/24 09:24:25;;;;;;;0.40;0.40;;;12.80;99.90;;;;;;5039535;28;20164;-86
2024/01/24 09:26:50;;;;;;;0.53;0.53;;;12.80;99.90;;;;;;5039799;28;20196;-85
2024/01/24 09:29:16;;;;;;;0.40;0.40;;;13.00;99.90;;;;;;5038943;28;20259;-87
2024/01/24 09:31:45;;;;;;;0.50;0.50;;;12.70;99.90;;;;;;5040684;28;20285;-87
2024/01/24 09:34:12;;;;;;;0.60;0.60;;;12.80;99.90;;;;;;5040419;28;20176;-88
2024/01/24 09:36:37;;;;;;;0.50;0.50;;;12.80;99.90;;;;;;5038553;28;20187;-86
2024/01/24 09:39:03;;;;;;;0.50;0.50;;;12.80;99.90;;;;;;5039069;28;20182;-86
2024/01/24 09:41:37;;;;;;;0.50;0.50;;;12.80;99.90;;;;;;5037562;28;20282;-89
2024/01/24 09:44:04;;;;;;;0.50;0.50;;;12.90;1.00;;;;;;5039308;28;20182;-86
2024/01/24 09:46:32;;;;;;;0.50;0.50;;;12.80;1.00;;;;;;5039409;28;20196;-87
2024/01/24 09:48:58;;;;;;;0.50;0.50;;;12.80;1.00;;;;;;5038940;28;20171;-88
2024/01/24 09:51:24;;;;;;;0.50;0.50;;;12.90;1.00;;;;;;5039272;28;20210;-88
2024/01/24 09:53:51;;;;;;;0.50;0.50;;;12.90;1.00;;;;;;5038674;28;20199;-88
2024/01/24 09:56:18;;;;;;;0.40;0.40;;;12.90;1.00;;;;;;5038059;28;20250;-88
2024/01/24 09:58:44;;;;;;;0.43;0.43;;;13.10;1.00;;;;;;5042108;28;20167;-88
2024/01/24 10:01:12;;;;;;;0.47;0.47;;;13.10;1.00;;;;;;5039055;28;20190;-88
2024/01/24 10:03:39;;;;;;;0.50;0.50;;;13.20;1.00;;;;;;5038852;28;20652;-88
2024/01/24 10:06:09;;;;;;;0.43;0.43;;;13.30;1.00;;;;;;5038637;28;20278;-87
2024/01/24 10:08:35;;;;;;;0.60;0.60;;;13.30;1.00;;;;;;5037794;28;20272;-88
2024/01/24 10:11:01;;;;;;;0.60;0.60;;;13.20;1.00;;;;;;5039261;28;20243;-84
2024/01/24 10:13:26;;;;;;;0.53;0.53;;;13.30;99.90;;;;;;5038960;28;20172;-85
2024/01/24 10:15:53;;;;;;;0.40;0.40;;;13.40;99.90;;;;;;5036424;28;20555;-88
2024/01/24 10:18:19;;;;;;;0.50;0.50;;;13.60;99.90;;;;;;5039535;28;20209;-86
2024/01/24 10:20:47;;;;;;;0.50;0.50;;;13.60;97.20;;;;;;5038336;28;20232;-87
2024/01/24 10:23:13;;;;;;;0.50;0.50;;;13.50;99.90;;;;;;5036848;28;20168;-88
2024/01/24 10:25:40;;;;;;;0.50;0.50;;;13.40;99.90;;;;;;5037751;28;20175;-87
2024/01/24 10:28:31;;;;;;;0.50;0.50;;;13.50;1.00;;;;;;5033231;28;20211;-86
2024/01/24 10:30:56;;;;;;;0.40;0.40;;;13.80;99.90;;;;;;5040661;28;20290;-86
2024/01/24 10:33:22;;;;;;;0.40;0.40;;;14.10;1.00;;;;;;5037109;28;20936;-87
2024/01/24 10:35:48;;;;;;;0.40;0.40;;;14.60;99.90;;;;;;5035588;28;20618;-87
2024/01/24 10:38:17;;;;;;;0.50;0.50;;;14.50;1.00;;;;;;5034540;28;20182;-87
2024/01/24 10:40:43;;;;;;;0.50;0.50;;;14.60;83.70;;;;;;5036283;28;20657;-86
2024/01/24 10:43:14;;;;;;;0.40;0.40;;;14.80;1.00;;;;;;5037347;28;20206;-88
2024/01/24 10:45:44;;;;;;;0.50;0.50;;;14.80;99.90;;;;;;5036284;28;20176;-87
2024/01/24 10:48:11;;;;;;;0.43;0.43;;;14.70;1.00;;;;;;5035586;28;20551;-84
2024/01/24 10:50:40;;;;;;;0.50;0.50;;;14.50;99.90;;;;;;5035173;28;20215;-86
2024/01/24 10:53:07;;;;;;;0.50;0.50;;;14.40;1.00;;;;;;5035096;28;20261;-88
2024/01/24 10:55:36;;;;;;;0.40;0.40;;;14.40;1.00;;;;;;5035841;28;20279;-87
2024/01/24 10:58:02;;;;;;;0.53;0.53;;;14.30;99.90;;;;;;5030153;28;20227;-86
2024/01/24 11:00:29;;;;;;;0.43;0.43;;;14.20;1.00;;;;;;5034917;28;20167;-87
2024/01/24 11:02:55;;;;;;;0.60;0.60;;;14.00;1.00;;;;;;5036126;28;20168;-86
2024/01/24 11:05:43;;;;;;;0.50;0.50;;;13.80;99.90;;;;;;5036368;28;20178;-88
2024/01/24 11:08:16;;;;;;;0.40;0.40;;;13.70;1.00;;;;;;5036151;28;20191;-85
2024/01/24 11:10:43;;;;;;;0.43;0.43;;;13.70;91.90;;;;;;5049959;28;20200;-89
2024/01/24 11:13:11;;;;;;;0.50;0.50;;;13.70;99.90;;;;;;5046808;28;20302;-88
2024/01/24 11:15:37;;;;;;;0.47;0.47;;;13.70;99.90;;;;;;5037015;28;20175;-88
2024/01/24 11:18:22;;;;;;;0.60;0.60;;;13.80;1.00;;;;;;5051166;28;20226;-86
2024/01/24 11:20:55;;;;;;;0.40;0.40;;;13.40;1.00;;;;;;5052419;28;20192;-90
2024/01/24 11:23:46;;;;;;;0.40;0.40;;;13.20;1.00;;;;;;5056443;28;20168;-88
2024/01/24 11:26:18;;;;;;;0.50;0.50;;;13.10;1.00;;;;;;5042474;28;20191;-88
2024/01/24 11:28:47;;;;;;;0.40;0.40;;;12.90;1.00;;;;;;5037762;28;20645;-87
2024/01/24 11:31:13;;;;;;;0.60;0.60;;;12.90;12.00;;;;;;5042120;28;20208;-89
2024/01/24 11:34:08;;;;;;;0.43;0.43;;;12.80;14.30;;;;;;5037113;28;20175;-90
2024/01/24 11:36:47;;;;;;;0.50;0.50;;;12.90;7.20;;;;;;5049463;28;20196;-90
2024/01/24 11:39:35;;;;;;;0.50;0.50;;;12.90;6.50;;;;;;5039475;28;20198;-88
2024/01/24 11:42:30;;;;;;;0.50;0.50;;;13.00;1.00;;;;;;5040574;28;20195;-87
2024/01/24 11:45:20;;;;;;;0.50;0.50;;;12.90;1.00;;;;;;5039279;28;20187;-88
2024/01/24 11:47:46;;;;;;;0.53;0.53;;;13.10;1.00;;;;;;5041226;28;20192;-89
2024/01/24 11:50:13;;;;;;;0.60;0.60;;;13.20;1.00;;;;;;5057504;28;20207;-91
2024/01/24 11:52:39;;;;;;;0.50;0.50;;;13.10;1.00;;;;;;5057783;28;20251;-91
2024/01/24 11:55:06;;;;;;;0.50;0.50;;;13.10;1.00;;;;;;5175943;23;20216;-96
2024/01/24 11:57:32;;;;;;;0.60;0.60;;;13.10;1.00;;;;;;5018687;28;20189;-91
2024/01/24 11:59:58;;;;;;;0.57;0.57;;;13.20;1.00;;;;;;5018484;28;20208;-90
2024/01/24 12:02:24;;;;;;;0.50;0.50;;;13.10;1.00;;;;;;5018120;28;20176;-89
2024/01/24 12:04:51;;;;;;;0.50;0.50;;;13.10;1.00;;;;;;5036200;23;20236;-84
2024/01/24 12:07:17;;;;;;;0.50;0.50;;;13.10;1.00;;;;;;5030514;28;20226;-87
2024/01/24 12:09:42;;;;;;;0.47;0.47;;;13.20;1.00;;;;;;5030804;28;20183;-87
2024/01/24 12:12:12;;;;;;;0.50;0.50;;;13.30;1.00;;;;;;5034806;28;20187;-88
2024/01/24 12:14:39;;;;;;;0.47;0.47;;;13.30;1.00;;;;;;5032902;28;20222;-85
2024/01/24 12:17:05;;;;;;;0.40;0.40;;;13.40;1.00;;;;;;5035191;28;20676;-86
2024/01/24 12:19:30;;;;;;;0.40;0.40;;;13.30;1.00;;;;;;5035388;28;20186;-89
2024/01/24 12:21:58;;;;;;;0.50;0.50;;;13.20;1.00;;;;;;5031508;28;20230;-88
2024/01/24 12:24:24;;;;;;;0.50;0.50;;;13.30;1.00;;;;;;5030972;28;20556;-89
2024/01/24 12:26:50;;;;;;;0.50;0.50;;;13.20;1.00;;;;;;5034350;28;20302;-88
2024/01/24 12:29:16;;;;;;;0.50;0.50;;;13.10;1.00;;;;;;5034695;28;20653;-89
2024/01/24 12:31:45;;;;;;;0.50;0.50;;;13.10;1.00;;;;;;5039816;28;20234;-87
2024/01/24 12:34:11;;;;;;;0.50;0.50;;;13.10;1.00;;;;;;5057214;28;20168;-88
2024/01/24 12:36:37;;;;;;;0.50;0.50;;;13.10;1.00;;;;;;5056436;28;20198;-91
2024/01/24 12:39:05;;;;;;;0.50;0.50;;;13.00;1.00;;;;;;5037481;28;20171;-89
2024/01/24 12:41:31;;;;;;;0.30;0.30;;;12.90;1.00;;;;;;5037172;28;20448;-87
2024/01/24 12:43:58;;;;;;;0.40;0.40;;;12.90;1.00;;;;;;5039112;28;20175;-89
2024/01/24 12:46:24;;;;;;;0.50;0.50;;;12.80;1.00;;;;;;5039049;28;20214;-89
2024/01/24 12:48:50;;;;;;;0.70;0.70;;;12.70;1.00;;;;;;5029198;28;20318;-87
2024/01/24 12:51:15;;;;;;;0.40;0.40;;;12.70;1.00;;;;;;5033816;28;20242;-88
2024/01/24 12:53:41;;;;;;;0.40;0.40;;;12.70;1.00;;;;;;5037671;28;20176;-89